sensor_id;sensor_type;location;lat;lon;timestamp;temperature;humidity
31991;DHT22;18508;49.386;8.370;2023-06-14T00:00:46;16.40;99.90
31991;DHT22;18508;49.386;8.370;2023-06-14T00:03:17;16.30;99.90
31991;DHT22;18508;49.386;8.370;2023-06-14T00:05:46;16.20;99.90
31991;DHT22;18508;49.386;8.370;2023-06-14T00:08:15;16.20;99.90
31991;DHT22;18508;49.386;8.370;2023-06-14T00:10:43;16.10;99.90
31991;DHT22;18508;49.386;8.370;2023-06-14T00:13:11;16.10;99.90
31991;DHT22;18508;49.386;8.370;2023-06-14T00:15:39;16.10;99.90
31991;DHT22;18508;49.386;8.370;2023-06-14T00:18:07;16.00;99.90
31991;DHT22;18508;49.386;8.370;2023-06-14T00:20:39;16.00;99.90
31991;DHT22;18508;49.386;8.370;2023-06-14T00:23:08;16.00;99.90
31991;DHT22;18508;49.386;8.370;2023-06-14T00:25:37;16.00;99.90
31991;DHT22;18508;49.386;8.370;2023-06-14T00:28:05;16.00;99.90
31991;DHT22;18508;49.386;8.370;2023-06-14T00:30:35;15.90;99.90
31991;DHT22;18508;49.386;8.370;2023-06-14T00:33:03;15.90;99.90
31991;DHT22;18508;49.386;8.370;2023-06-14T00:35:32;15.90;99.90
31991;DHT22;18508;49.386;8.370;2023-06-14T00:38:01;15.90;99.90
31991;DHT22;18508;49.386;8.370;2023-06-14T00:40:30;15.90;99.90
31991;DHT22;18508;49.386;8.370;2023-06-14T00:42:58;16.00;99.90
31991;DHT22;18508;49.386;8.370;2023-06-14T00:45:27;16.00;45.90
31991;DHT22;18508;49.386;8.370;2023-06-14T00:47:58;16.00;1.00
31991;DHT22;18508;49.386;8.370;2023-06-14T00:50:27;16.00;1.00
31991;DHT22;18508;49.386;8.370;2023-06-14T00:52:56;16.00;1.00
31991;DHT22;18508;49.386;8.370;2023-06-14T00:55:26;16.10;1.00
31991;DHT22;18508;49.386;8.370;2023-06-14T00:57:54;16.40;1.00
31991;DHT22;18508;49.386;8.370;2023-06-14T01:00:23;16.00;1.00
31991;DHT22;18508;49.386;8.370;2023-06-14T01:02:51;16.10;1.00
31991;DHT22;18508;49.386;8.370;2023-06-14T01:05:21;16.10;1.00
31991;DHT22;18508;49.386;8.370;2023-06-14T01:08:10;16.10;99.90
31991;DHT22;18508;49.386;8.370;2023-06-14T01:10:51;16.10;99.90
31991;DHT22;18508;49.386;8.370;2023-06-14T01:13:24;16.10;99.90
31991;DHT22;18508;49.386;8.370;2023-06-14T01:15:56;16.10;99.90
31991;DHT22;18508;49.386;8.370;2023-06-14T01:18:24;16.10;99.90
31991;DHT22;18508;49.386;8.370;2023-06-14T01:20:52;16.10;99.90
31991;DHT22;18508;49.386;8.370;2023-06-14T01:23:24;16.10;99.90
31991;DHT22;18508;49.386;8.370;2023-06-14T01:25:59;16.00;99.90
31991;DHT22;18508;49.386;8.370;2023-06-14T01:28:31;16.10;99.90
31991;DHT22;18508;49.386;8.370;2023-06-14T01:31:02;16.00;99.90
31991;DHT22;18508;49.386;8.370;2023-06-14T01:33:33;16.00;99.90
31991;DHT22;18508;49.386;8.370;2023-06-14T01:36:02;15.60;1.00
31991;DHT22;18508;49.386;8.370;2023-06-14T01:38:33;15.90;1.00
31991;DHT22;18508;49.386;8.370;2023-06-14T01:41:02;15.90;1.00
31991;DHT22;18508;49.386;8.370;2023-06-14T01:43:33;15.90;1.00
31991;DHT22;18508;49.386;8.370;2023-06-14T01:46:02;15.80;1.00
31991;DHT22;18508;49.386;8.370;2023-06-14T01:48:31;15.80;1.00
31991;DHT22;18508;49.386;8.370;2023-06-14T01:51:00;15.80;1.00
31991;DHT22;18508;49.386;8.370;2023-06-14T01:53:28;15.80;1.00
31991;DHT22;18508;49.386;8.370;2023-06-14T01:55:58;15.70;1.00
31991;DHT22;18508;49.386;8.370;2023-06-14T01:58:28;15.70;1.00
31991;DHT22;18508;49.386;8.370;2023-06-14T02:00:56;15.70;1.00
31991;DHT22;18508;49.386;8.370;2023-06-14T02:03:28;15.60;1.00
31991;DHT22;18508;49.386;8.370;2023-06-14T02:05:58;15.60;1.00
31991;DHT22;18508;49.386;8.370;2023-06-14T02:08:27;15.60;1.00
31991;DHT22;18508;49.386;8.370;2023-06-14T02:10:55;15.60;1.00
31991;DHT22;18508;49.386;8.370;2023-06-14T02:13:25;15.60;1.00
31991;DHT22;18508;49.386;8.370;2023-06-14T02:15:53;15.50;1.00
31991;DHT22;18508;49.386;8.370;2023-06-14T02:18:26;15.50;1.00
31991;DHT22;18508;49.386;8.370;2023-06-14T02:20:55;15.50;1.00
31991;DHT22;18508;49.386;8.370;2023-06-14T02:23:23;15.50;1.00
31991;DHT22;18508;49.386;8.370;2023-06-14T02:25:51;15.50;1.00
31991;DHT22;18508;49.386;8.370;2023-06-14T02:28:19;15.40;62.00
31991;DHT22;18508;49.386;8.370;2023-06-14T02:30:49;15.40;99.90
31991;DHT22;18508;49.386;8.370;2023-06-14T02:33:18;15.30;73.40
31991;DHT22;18508;49.386;8.370;2023-06-14T02:35:46;15.30;75.80
31991;DHT22;18508;49.386;8.370;2023-06-14T02:38:15;15.30;82.40
31991;DHT22;18508;49.386;8.370;2023-06-14T02:40:43;15.20;99.90
31991;DHT22;18508;49.386;8.370;2023-06-14T02:43:12;15.20;99.90
31991;DHT22;18508;49.386;8.370;2023-06-14T02:45:40;15.20;99.90
31991;DHT22;18508;49.386;8.370;2023-06-14T02:48:10;15.10;99.90
31991;DHT22;18508;49.386;8.370;2023-06-14T02:50:39;15.10;99.90
31991;DHT22;18508;49.386;8.370;2023-06-14T02:53:07;15.10;99.90
31991;DHT22;18508;49.386;8.370;2023-06-14T02:55:37;15.10;99.90
31991;DHT22;18508;49.386;8.370;2023-06-14T02:58:07;15.10;99.90
31991;DHT22;18508;49.386;8.370;2023-06-14T03:00:35;15.00;99.90
31991;DHT22;18508;49.386;8.370;2023-06-14T03:03:05;15.00;99.90
31991;DHT22;18508;49.386;8.370;2023-06-14T03:05:41;15.00;99.90
31991;DHT22;18508;49.386;8.370;2023-06-14T03:08:12;15.00;99.90
31991;DHT22;18508;49.386;8.370;2023-06-14T03:10:43;15.00;99.90
31991;DHT22;18508;49.386;8.370;2023-06-14T03:13:12;15.00;99.90
31991;DHT22;18508;49.386;8.370;2023-06-14T03:15:40;15.00;99.90
31991;DHT22;18508;49.386;8.370;2023-06-14T03:18:09;14.90;99.90
31991;DHT22;18508;49.386;8.370;2023-06-14T03:20:39;15.00;99.90
31991;DHT22;18508;49.386;8.370;2023-06-14T03:23:09;15.00;99.90
31991;DHT22;18508;49.386;8.370;2023-06-14T03:25:38;15.00;99.90
31991;DHT22;18508;49.386;8.370;2023-06-14T03:28:09;15.00;99.90
31991;DHT22;18508;49.386;8.370;2023-06-14T03:30:37;15.00;99.90
31991;DHT22;18508;49.386;8.370;2023-06-14T03:33:05;15.00;99.90
31991;DHT22;18508;49.386;8.370;2023-06-14T03:35:33;15.00;99.90
31991;DHT22;18508;49.386;8.370;2023-06-14T03:38:03;15.00;99.90
31991;DHT22;18508;49.386;8.370;2023-06-14T03:40:34;15.00;99.90
31991;DHT22;18508;49.386;8.370;2023-06-14T03:43:02;15.00;99.90
31991;DHT22;18508;49.386;8.370;2023-06-14T03:45:30;14.90;99.90
31991;DHT22;18508;49.386;8.370;2023-06-14T03:47:58;15.00;99.90
31991;DHT22;18508;49.386;8.370;2023-06-14T03:50:27;15.00;99.90
31991;DHT22;18508;49.386;8.370;2023-06-14T03:52:56;15.00;99.90
31991;DHT22;18508;49.386;8.370;2023-06-14T03:55:25;15.00;99.90
31991;DHT22;18508;49.386;8.370;2023-06-14T03:57:57;15.00;99.90
31991;DHT22;18508;49.386;8.370;2023-06-14T04:00:26;15.00;99.90
31991;DHT22;18508;49.386;8.370;2023-06-14T04:02:54;15.00;99.90
31991;DHT22;18508;49.386;8.370;2023-06-14T04:05:22;15.10;99.90
31991;DHT22;18508;49.386;8.370;2023-06-14T04:07:53;15.10;99.90
31991;DHT22;18508;49.386;8.370;2023-06-14T04:10:24;15.10;99.90
31991;DHT22;18508;49.386;8.370;2023-06-14T04:12:54;15.10;99.90
31991;DHT22;18508;49.386;8.370;2023-06-14T04:15:23;15.10;99.90
31991;DHT22;18508;49.386;8.370;2023-06-14T04:17:52;15.10;99.90
31991;DHT22;18508;49.386;8.370;2023-06-14T04:20:24;15.10;99.90
31991;DHT22;18508;49.386;8.370;2023-06-14T04:22:53;15.10;99.90
31991;DHT22;18508;49.386;8.370;2023-06-14T04:25:25;15.20;99.90
31991;DHT22;18508;49.386;8.370;2023-06-14T04:27:56;15.20;99.90
31991;DHT22;18508;49.386;8.370;2023-06-14T04:30:25;15.20;99.90
31991;DHT22;18508;49.386;8.370;2023-06-14T04:32:58;15.30;99.90
31991;DHT22;18508;49.386;8.370;2023-06-14T04:35:28;15.30;99.90
31991;DHT22;18508;49.386;8.370;2023-06-14T04:37:56;15.40;99.90
31991;DHT22;18508;49.386;8.370;2023-06-14T04:40:26;15.40;99.90
31991;DHT22;18508;49.386;8.370;2023-06-14T04:42:54;15.50;99.90
31991;DHT22;18508;49.386;8.370;2023-06-14T04:45:22;15.50;99.90
31991;DHT22;18508;49.386;8.370;2023-06-14T04:47:50;15.60;99.90
31991;DHT22;18508;49.386;8.370;2023-06-14T04:50:24;15.70;99.90
31991;DHT22;18508;49.386;8.370;2023-06-14T04:52:53;15.80;99.90
31991;DHT22;18508;49.386;8.370;2023-06-14T04:55:21;15.70;99.90
31991;DHT22;18508;49.386;8.370;2023-06-14T04:57:53;15.90;99.90
31991;DHT22;18508;49.386;8.370;2023-06-14T05:00:21;16.00;99.90
31991;DHT22;18508;49.386;8.370;2023-06-14T05:02:50;16.10;73.80
31991;DHT22;18508;49.386;8.370;2023-06-14T05:05:20;16.20;93.60
31991;DHT22;18508;49.386;8.370;2023-06-14T05:07:48;16.20;52.50
31991;DHT22;18508;49.386;8.370;2023-06-14T05:10:20;16.30;57.30
31991;DHT22;18508;49.386;8.370;2023-06-14T05:12:48;16.40;62.30
31991;DHT22;18508;49.386;8.370;2023-06-14T05:15:18;16.40;59.00
31991;DHT22;18508;49.386;8.370;2023-06-14T05:17:48;16.60;37.10
31991;DHT22;18508;49.386;8.370;2023-06-14T05:20:22;16.70;6.30
31991;DHT22;18508;49.386;8.370;2023-06-14T05:22:52;16.80;1.00
31991;DHT22;18508;49.386;8.370;2023-06-14T05:25:21;16.80;1.00
31991;DHT22;18508;49.386;8.370;2023-06-14T05:27:49;16.90;1.00
31991;DHT22;18508;49.386;8.370;2023-06-14T05:30:18;17.00;1.00
31991;DHT22;18508;49.386;8.370;2023-06-14T05:32:47;17.10;1.00
31991;DHT22;18508;49.386;8.370;2023-06-14T05:35:15;17.20;1.00
31991;DHT22;18508;49.386;8.370;2023-06-14T05:37:45;17.30;1.00
31991;DHT22;18508;49.386;8.370;2023-06-14T05:40:15;17.40;1.00
31991;DHT22;18508;49.386;8.370;2023-06-14T05:42:44;17.40;1.00
31991;DHT22;18508;49.386;8.370;2023-06-14T05:45:12;17.50;1.00
31991;DHT22;18508;49.386;8.370;2023-06-14T05:47:44;17.60;1.00
31991;DHT22;18508;49.386;8.370;2023-06-14T05:50:12;17.80;1.00
31991;DHT22;18508;49.386;8.370;2023-06-14T05:52:40;18.00;1.00
31991;DHT22;18508;49.386;8.370;2023-06-14T05:55:09;18.10;1.00
31991;DHT22;18508;49.386;8.370;2023-06-14T05:57:40;18.20;1.00
31991;DHT22;18508;49.386;8.370;2023-06-14T06:00:09;18.40;99.90
31991;DHT22;18508;49.386;8.370;2023-06-14T06:02:45;18.50;99.90
31991;DHT22;18508;49.386;8.370;2023-06-14T06:05:14;18.50;99.90
31991;DHT22;18508;49.386;8.370;2023-06-14T06:07:44;18.60;99.90
31991;DHT22;18508;49.386;8.370;2023-06-14T06:10:13;18.70;99.90
31991;DHT22;18508;49.386;8.370;2023-06-14T06:12:42;18.70;99.90
31991;DHT22;18508;49.386;8.370;2023-06-14T06:15:10;18.70;99.90
31991;DHT22;18508;49.386;8.370;2023-06-14T06:17:39;18.90;99.90
31991;DHT22;18508;49.386;8.370;2023-06-14T06:20:23;19.00;99.90
31991;DHT22;18508;49.386;8.370;2023-06-14T06:22:56;19.20;8.80
31991;DHT22;18508;49.386;8.370;2023-06-14T06:25:25;19.30;7.50
31991;DHT22;18508;49.386;8.370;2023-06-14T06:27:54;19.50;1.00
31991;DHT22;18508;49.386;8.370;2023-06-14T06:30:24;19.60;1.00
31991;DHT22;18508;49.386;8.370;2023-06-14T06:32:53;19.70;1.00
31991;DHT22;18508;49.386;8.370;2023-06-14T06:35:24;19.70;1.00
31991;DHT22;18508;49.386;8.370;2023-06-14T06:37:52;19.90;1.00
31991;DHT22;18508;49.386;8.370;2023-06-14T06:40:20;20.10;1.00
31991;DHT22;18508;49.386;8.370;2023-06-14T06:42:49;20.20;99.90
31991;DHT22;18508;49.386;8.370;2023-06-14T06:45:17;20.30;99.90
31991;DHT22;18508;49.386;8.370;2023-06-14T06:47:46;20.40;99.90
31991;DHT22;18508;49.386;8.370;2023-06-14T06:50:15;20.50;99.90
31991;DHT22;18508;49.386;8.370;2023-06-14T06:52:45;20.60;99.90
31991;DHT22;18508;49.386;8.370;2023-06-14T06:55:13;20.50;99.90
31991;DHT22;18508;49.386;8.370;2023-06-14T06:57:43;20.50;99.90
31991;DHT22;18508;49.386;8.370;2023-06-14T07:00:12;20.60;99.90
31991;DHT22;18508;49.386;8.370;2023-06-14T07:02:40;20.80;99.90
31991;DHT22;18508;49.386;8.370;2023-06-14T07:05:09;20.90;99.90
31991;DHT22;18508;49.386;8.370;2023-06-14T07:07:37;21.00;99.90
31991;DHT22;18508;49.386;8.370;2023-06-14T07:10:09;21.20;43.50
31991;DHT22;18508;49.386;8.370;2023-06-14T07:12:37;21.30;1.00
31991;DHT22;18508;49.386;8.370;2023-06-14T07:15:07;21.30;1.00
31991;DHT22;18508;49.386;8.370;2023-06-14T07:17:36;21.30;1.00
31991;DHT22;18508;49.386;8.370;2023-06-14T07:20:05;21.50;1.00
31991;DHT22;18508;49.386;8.370;2023-06-14T07:22:41;21.50;1.00
31991;DHT22;18508;49.386;8.370;2023-06-14T07:25:12;21.40;1.00
31991;DHT22;18508;49.386;8.370;2023-06-14T07:27:42;21.40;99.90
31991;DHT22;18508;49.386;8.370;2023-06-14T07:30:12;21.40;99.90
31991;DHT22;18508;49.386;8.370;2023-06-14T07:32:40;21.50;99.90
31991;DHT22;18508;49.386;8.370;2023-06-14T07:35:09;21.60;99.90
31991;DHT22;18508;49.386;8.370;2023-06-14T07:37:39;21.70;99.90
31991;DHT22;18508;49.386;8.370;2023-06-14T07:40:08;21.60;99.90
31991;DHT22;18508;49.386;8.370;2023-06-14T07:42:39;21.70;99.90
31991;DHT22;18508;49.386;8.370;2023-06-14T07:45:08;21.60;99.90
31991;DHT22;18508;49.386;8.370;2023-06-14T07:47:37;21.70;99.90
31991;DHT22;18508;49.386;8.370;2023-06-14T07:50:06;22.00;99.90
31991;DHT22;18508;49.386;8.370;2023-06-14T07:52:35;22.00;99.90
31991;DHT22;18508;49.386;8.370;2023-06-14T07:55:04;22.00;99.90
31991;DHT22;18508;49.386;8.370;2023-06-14T07:57:33;22.10;99.90
31991;DHT22;18508;49.386;8.370;2023-06-14T08:00:04;22.00;99.90
31991;DHT22;18508;49.386;8.370;2023-06-14T08:02:34;22.00;99.90
31991;DHT22;18508;49.386;8.370;2023-06-14T08:05:03;22.10;99.90
31991;DHT22;18508;49.386;8.370;2023-06-14T08:07:32;22.20;99.90
31991;DHT22;18508;49.386;8.370;2023-06-14T08:10:01;22.20;99.90
31991;DHT22;18508;49.386;8.370;2023-06-14T08:12:30;22.30;99.90
31991;DHT22;18508;49.386;8.370;2023-06-14T08:14:59;22.50;65.90
31991;DHT22;18508;49.386;8.370;2023-06-14T08:17:36;22.50;10.20
31991;DHT22;18508;49.386;8.370;2023-06-14T08:20:05;22.70;1.00
31991;DHT22;18508;49.386;8.370;2023-06-14T08:22:38;22.60;1.00
31991;DHT22;18508;49.386;8.370;2023-06-14T08:25:09;22.70;1.00
31991;DHT22;18508;49.386;8.370;2023-06-14T08:27:38;22.80;1.00
31991;DHT22;18508;49.386;8.370;2023-06-14T08:30:07;22.80;50.90
31991;DHT22;18508;49.386;8.370;2023-06-14T08:32:38;22.90;1.00
31991;DHT22;18508;49.386;8.370;2023-06-14T08:35:09;22.90;1.00
31991;DHT22;18508;49.386;8.370;2023-06-14T08:37:38;23.00;1.00
31991;DHT22;18508;49.386;8.370;2023-06-14T08:40:19;23.10;99.90
31991;DHT22;18508;49.386;8.370;2023-06-14T08:42:50;23.20;99.90
31991;DHT22;18508;49.386;8.370;2023-06-14T08:45:19;23.10;99.90
31991;DHT22;18508;49.386;8.370;2023-06-14T08:47:54;23.20;99.90
31991;DHT22;18508;49.386;8.370;2023-06-14T08:50:26;23.50;99.90
31991;DHT22;18508;49.386;8.370;2023-06-14T08:53:02;23.50;99.90
31991;DHT22;18508;49.386;8.370;2023-06-14T08:55:31;23.30;83.20
31991;DHT22;18508;49.386;8.370;2023-06-14T08:58:04;23.30;13.80
31991;DHT22;18508;49.386;8.370;2023-06-14T09:00:33;23.50;16.00
31991;DHT22;18508;49.386;8.370;2023-06-14T09:03:03;23.60;1.00
31991;DHT22;18508;49.386;8.370;2023-06-14T09:05:33;23.40;1.00
31991;DHT22;18508;49.386;8.370;2023-06-14T09:08:01;23.40;1.00
31991;DHT22;18508;49.386;8.370;2023-06-14T09:10:33;23.50;1.00
31991;DHT22;18508;49.386;8.370;2023-06-14T09:13:04;23.60;1.00
31991;DHT22;18508;49.386;8.370;2023-06-14T09:15:33;23.80;1.00
31991;DHT22;18508;49.386;8.370;2023-06-14T09:18:04;23.80;1.00
31991;DHT22;18508;49.386;8.370;2023-06-14T09:20:33;23.80;1.00
31991;DHT22;18508;49.386;8.370;2023-06-14T09:23:01;24.00;1.00
31991;DHT22;18508;49.386;8.370;2023-06-14T09:25:32;24.00;1.00
31991;DHT22;18508;49.386;8.370;2023-06-14T09:28:09;23.80;1.00
31991;DHT22;18508;49.386;8.370;2023-06-14T09:30:38;23.80;1.00
31991;DHT22;18508;49.386;8.370;2023-06-14T09:33:08;23.70;1.00
31991;DHT22;18508;49.386;8.370;2023-06-14T09:35:36;23.90;1.00
31991;DHT22;18508;49.386;8.370;2023-06-14T09:38:04;24.00;1.00
31991;DHT22;18508;49.386;8.370;2023-06-14T09:40:35;24.00;1.00
31991;DHT22;18508;49.386;8.370;2023-06-14T09:43:07;24.10;1.00
31991;DHT22;18508;49.386;8.370;2023-06-14T09:45:38;24.10;1.00
31991;DHT22;18508;49.386;8.370;2023-06-14T09:48:09;24.10;1.00
31991;DHT22;18508;49.386;8.370;2023-06-14T09:50:39;24.20;1.00
31991;DHT22;18508;49.386;8.370;2023-06-14T09:53:11;24.10;99.90
31991;DHT22;18508;49.386;8.370;2023-06-14T09:55:41;24.00;99.90
31991;DHT22;18508;49.386;8.370;2023-06-14T09:58:10;24.10;99.90
31991;DHT22;18508;49.386;8.370;2023-06-14T10:00:40;24.00;99.90
31991;DHT22;18508;49.386;8.370;2023-06-14T10:03:15;24.10;99.90
31991;DHT22;18508;49.386;8.370;2023-06-14T10:05:45;24.00;99.90
31991;DHT22;18508;49.386;8.370;2023-06-14T10:08:18;24.20;99.90
31991;DHT22;18508;49.386;8.370;2023-06-14T10:10:47;24.40;99.90
31991;DHT22;18508;49.386;8.370;2023-06-14T10:13:16;24.50;99.90
31991;DHT22;18508;49.386;8.370;2023-06-14T10:15:52;24.60;99.90
31991;DHT22;18508;49.386;8.370;2023-06-14T10:18:31;24.70;1.00
31991;DHT22;18508;49.386;8.370;2023-06-14T10:21:05;24.80;43.30
31991;DHT22;18508;49.386;8.370;2023-06-14T10:23:38;24.90;99.90
31991;DHT22;18508;49.386;8.370;2023-06-14T10:26:18;25.00;99.90
31991;DHT22;18508;49.386;8.370;2023-06-14T10:28:56;24.90;99.90
31991;DHT22;18508;49.386;8.370;2023-06-14T10:31:39;25.00;99.90
31991;DHT22;18508;49.386;8.370;2023-06-14T10:34:10;24.70;1.00
31991;DHT22;18508;49.386;8.370;2023-06-14T10:36:42;24.70;1.00
31991;DHT22;18508;49.386;8.370;2023-06-14T10:39:14;24.80;99.90
31991;DHT22;18508;49.386;8.370;2023-06-14T10:41:51;25.10;99.90
31991;DHT22;18508;49.386;8.370;2023-06-14T10:47:29;24.90;99.90
31991;DHT22;18508;49.386;8.370;2023-06-14T10:50:06;24.90;1.00
31991;DHT22;18508;49.386;8.370;2023-06-14T10:52:37;24.90;99.90
31991;DHT22;18508;49.386;8.370;2023-06-14T10:55:08;25.10;99.90
31991;DHT22;18508;49.386;8.370;2023-06-14T10:57:44;25.20;99.90
31991;DHT22;18508;49.386;8.370;2023-06-14T11:00:19;25.40;1.00
31991;DHT22;18508;49.386;8.370;2023-06-14T11:06:13;25.50;99.90
31991;DHT22;18508;49.386;8.370;2023-06-14T11:09:08;25.60;99.90
31991;DHT22;18508;49.386;8.370;2023-06-14T11:11:42;25.70;99.90
31991;DHT22;18508;49.386;8.370;2023-06-14T11:14:10;26.10;1.00
31991;DHT22;18508;49.386;8.370;2023-06-14T11:16:39;26.10;1.00
31991;DHT22;18508;49.386;8.370;2023-06-14T11:19:08;25.90;99.90
31991;DHT22;18508;49.386;8.370;2023-06-14T11:21:41;26.00;1.00
31991;DHT22;18508;49.386;8.370;2023-06-14T11:24:10;26.10;99.90
31991;DHT22;18508;49.386;8.370;2023-06-14T11:26:40;26.00;99.90
31991;DHT22;18508;49.386;8.370;2023-06-14T11:29:09;25.90;99.90
31991;DHT22;18508;49.386;8.370;2023-06-14T11:31:37;25.90;1.00
31991;DHT22;18508;49.386;8.370;2023-06-14T11:34:05;26.00;1.00
31991;DHT22;18508;49.386;8.370;2023-06-14T11:36:34;25.80;94.90
31991;DHT22;18508;49.386;8.370;2023-06-14T11:39:06;25.80;99.90
31991;DHT22;18508;49.386;8.370;2023-06-14T11:41:40;25.80;99.90
31991;DHT22;18508;49.386;8.370;2023-06-14T11:44:08;25.40;99.90
31991;DHT22;18508;49.386;8.370;2023-06-14T11:46:37;25.50;1.00
31991;DHT22;18508;49.386;8.370;2023-06-14T11:49:07;25.60;1.00
31991;DHT22;18508;49.386;8.370;2023-06-14T11:51:36;26.00;99.90
31991;DHT22;18508;49.386;8.370;2023-06-14T11:54:06;25.90;99.90
31991;DHT22;18508;49.386;8.370;2023-06-14T11:56:36;25.70;1.00
31991;DHT22;18508;49.386;8.370;2023-06-14T11:59:04;25.70;99.90
31991;DHT22;18508;49.386;8.370;2023-06-14T12:01:36;26.10;1.00
31991;DHT22;18508;49.386;8.370;2023-06-14T12:04:06;26.30;99.90
31991;DHT22;18508;49.386;8.370;2023-06-14T12:06:35;26.20;99.90
31991;DHT22;18508;49.386;8.370;2023-06-14T12:09:08;26.00;99.90
31991;DHT22;18508;49.386;8.370;2023-06-14T12:11:40;25.80;99.90
31991;DHT22;18508;49.386;8.370;2023-06-14T12:14:09;25.50;1.00
31991;DHT22;18508;49.386;8.370;2023-06-14T12:16:39;25.40;99.90
31991;DHT22;18508;49.386;8.370;2023-06-14T12:19:12;25.40;1.00
31991;DHT22;18508;49.386;8.370;2023-06-14T12:21:41;25.90;99.90
31991;DHT22;18508;49.386;8.370;2023-06-14T12:24:12;26.40;99.90
31991;DHT22;18508;49.386;8.370;2023-06-14T12:26:41;26.50;1.00
31991;DHT22;18508;49.386;8.370;2023-06-14T12:29:10;26.50;99.90
31991;DHT22;18508;49.386;8.370;2023-06-14T12:31:40;26.30;99.90
31991;DHT22;18508;49.386;8.370;2023-06-14T12:34:10;26.40;99.90
31991;DHT22;18508;49.386;8.370;2023-06-14T12:36:40;26.80;14.60
31991;DHT22;18508;49.386;8.370;2023-06-14T12:39:13;27.40;99.90
31991;DHT22;18508;49.386;8.370;2023-06-14T12:41:42;27.50;99.90
31991;DHT22;18508;49.386;8.370;2023-06-14T12:44:11;27.20;99.90
31991;DHT22;18508;49.386;8.370;2023-06-14T12:46:39;27.10;99.90
31991;DHT22;18508;49.386;8.370;2023-06-14T12:49:09;26.80;99.90
31991;DHT22;18508;49.386;8.370;2023-06-14T12:51:39;26.30;99.90
31991;DHT22;18508;49.386;8.370;2023-06-14T12:54:08;26.30;99.90
31991;DHT22;18508;49.386;8.370;2023-06-14T12:56:37;26.80;99.90
31991;DHT22;18508;49.386;8.370;2023-06-14T12:59:08;27.80;99.90
31991;DHT22;18508;49.386;8.370;2023-06-14T13:01:38;27.80;99.90
31991;DHT22;18508;49.386;8.370;2023-06-14T13:04:06;28.60;99.90
31991;DHT22;18508;49.386;8.370;2023-06-14T13:06:35;28.90;99.90
31991;DHT22;18508;49.386;8.370;2023-06-14T13:09:06;28.30;1.00
31991;DHT22;18508;49.386;8.370;2023-06-14T13:11:35;27.60;99.90
31991;DHT22;18508;49.386;8.370;2023-06-14T13:14:04;27.30;1.00
31991;DHT22;18508;49.386;8.370;2023-06-14T13:16:51;27.30;1.00
31991;DHT22;18508;49.386;8.370;2023-06-14T13:19:20;27.00;99.90
31991;DHT22;18508;49.386;8.370;2023-06-14T13:21:48;26.90;99.90
31991;DHT22;18508;49.386;8.370;2023-06-14T13:24:19;27.30;99.90
31991;DHT22;18508;49.386;8.370;2023-06-14T13:26:49;27.60;99.90
31991;DHT22;18508;49.386;8.370;2023-06-14T13:29:18;27.80;99.90
31991;DHT22;18508;49.386;8.370;2023-06-14T13:31:47;28.50;99.90
31991;DHT22;18508;49.386;8.370;2023-06-14T13:34:15;29.30;99.90
31991;DHT22;18508;49.386;8.370;2023-06-14T13:36:43;30.10;99.90
31991;DHT22;18508;49.386;8.370;2023-06-14T13:39:12;31.00;1.00
31991;DHT22;18508;49.386;8.370;2023-06-14T13:41:40;31.80;99.90
31991;DHT22;18508;49.386;8.370;2023-06-14T13:44:09;32.30;99.90
31991;DHT22;18508;49.386;8.370;2023-06-14T13:47:00;32.60;99.90
31991;DHT22;18508;49.386;8.370;2023-06-14T13:49:46;32.50;1.00
31991;DHT22;18508;49.386;8.370;2023-06-14T13:52:14;31.40;99.90
31991;DHT22;18508;49.386;8.370;2023-06-14T13:55:01;30.40;99.90
31991;DHT22;18508;49.386;8.370;2023-06-14T13:57:47;29.90;99.90
31991;DHT22;18508;49.386;8.370;2023-06-14T14:00:33;29.50;99.90
31991;DHT22;18508;49.386;8.370;2023-06-14T14:03:25;29.70;99.90
31991;DHT22;18508;49.386;8.370;2023-06-14T14:05:54;29.40;99.90
31991;DHT22;18508;49.386;8.370;2023-06-14T14:08:23;30.10;99.90
31991;DHT22;18508;49.386;8.370;2023-06-14T14:10:51;30.70;99.90
31991;DHT22;18508;49.386;8.370;2023-06-14T14:13:19;31.20;99.90
31991;DHT22;18508;49.386;8.370;2023-06-14T14:16:06;31.40;99.90
31991;DHT22;18508;49.386;8.370;2023-06-14T14:18:53;32.20;99.90
31991;DHT22;18508;49.386;8.370;2023-06-14T14:21:21;32.20;99.90
31991;DHT22;18508;49.386;8.370;2023-06-14T14:23:50;32.20;99.90
31991;DHT22;18508;49.386;8.370;2023-06-14T14:26:36;31.00;99.90
31991;DHT22;18508;49.386;8.370;2023-06-14T14:29:04;30.20;99.90
31991;DHT22;18508;49.386;8.370;2023-06-14T14:31:33;29.80;99.90
31991;DHT22;18508;49.386;8.370;2023-06-14T14:34:03;29.40;99.90
31991;DHT22;18508;49.386;8.370;2023-06-14T14:36:31;28.80;99.90
31991;DHT22;18508;49.386;8.370;2023-06-14T14:39:04;28.50;99.90
31991;DHT22;18508;49.386;8.370;2023-06-14T14:41:38;28.50;99.90
31991;DHT22;18508;49.386;8.370;2023-06-14T14:44:08;28.50;99.90
31991;DHT22;18508;49.386;8.370;2023-06-14T14:46:36;28.90;99.90
31991;DHT22;18508;49.386;8.370;2023-06-14T14:49:06;29.80;99.90
31991;DHT22;18508;49.386;8.370;2023-06-14T14:51:34;30.60;99.90
31991;DHT22;18508;49.386;8.370;2023-06-14T14:54:05;31.30;99.90
31991;DHT22;18508;49.386;8.370;2023-06-14T14:56:33;31.50;99.90
31991;DHT22;18508;49.386;8.370;2023-06-14T14:59:04;32.30;99.90
31991;DHT22;18508;49.386;8.370;2023-06-14T15:01:33;32.20;99.90
31991;DHT22;18508;49.386;8.370;2023-06-14T15:04:02;31.40;99.90
31991;DHT22;18508;49.386;8.370;2023-06-14T15:06:32;32.00;99.90
31991;DHT22;18508;49.386;8.370;2023-06-14T15:09:05;32.80;99.90
31991;DHT22;18508;49.386;8.370;2023-06-14T15:11:34;32.20;1.00
31991;DHT22;18508;49.386;8.370;2023-06-14T15:14:02;32.00;1.00
31991;DHT22;18508;49.386;8.370;2023-06-14T15:16:31;32.90;1.00
31991;DHT22;18508;49.386;8.370;2023-06-14T15:18:59;32.80;1.00
31991;DHT22;18508;49.386;8.370;2023-06-14T15:21:27;32.70;1.00
31991;DHT22;18508;49.386;8.370;2023-06-14T15:23:57;31.70;1.00
31991;DHT22;18508;49.386;8.370;2023-06-14T15:26:25;31.50;1.00
31991;DHT22;18508;49.386;8.370;2023-06-14T15:28:54;30.40;1.00
31991;DHT22;18508;49.386;8.370;2023-06-14T15:31:22;29.90;1.00
31991;DHT22;18508;49.386;8.370;2023-06-14T15:33:54;30.10;1.00
31991;DHT22;18508;49.386;8.370;2023-06-14T15:36:22;30.60;1.00
31991;DHT22;18508;49.386;8.370;2023-06-14T15:38:50;31.70;1.00
31991;DHT22;18508;49.386;8.370;2023-06-14T15:41:20;32.20;1.00
31991;DHT22;18508;49.386;8.370;2023-06-14T15:47:37;33.10;1.00
31991;DHT22;18508;49.386;8.370;2023-06-14T15:50:07;33.30;1.00
31991;DHT22;18508;49.386;8.370;2023-06-14T15:52:35;33.30;1.00
31991;DHT22;18508;49.386;8.370;2023-06-14T15:55:05;33.60;1.00
31991;DHT22;18508;49.386;8.370;2023-06-14T15:57:37;33.70;1.00
31991;DHT22;18508;49.386;8.370;2023-06-14T16:00:07;32.80;1.00
31991;DHT22;18508;49.386;8.370;2023-06-14T16:02:36;31.70;1.00
31991;DHT22;18508;49.386;8.370;2023-06-14T16:05:05;30.90;1.00